createdAt,value
2024-04-30T00:01:27.733Z,55.12
2024-04-30T00:03:54.340Z,55.08
2024-04-30T00:06:20.851Z,55.15
2024-04-30T00:08:47.402Z,55.24
2024-04-30T00:11:13.969Z,55.29
2024-04-30T00:13:40.457Z,55.36
2024-04-30T00:16:07.300Z,55.44
2024-04-30T00:18:33.847Z,55.53
2024-04-30T00:21:00.513Z,55.62
2024-04-30T00:23:26.982Z,55.65
2024-04-30T00:25:53.556Z,55.75
2024-04-30T00:28:20.129Z,55.87
2024-04-30T00:30:46.667Z,55.95
2024-04-30T00:33:13.220Z,56.03
2024-04-30T00:35:39.671Z,56.02
2024-04-30T00:38:06.129Z,56.01
2024-04-30T00:40:32.669Z,55.95
2024-04-30T00:42:59.309Z,55.89
2024-04-30T00:45:25.877Z,55.76
2024-04-30T00:47:52.467Z,55.83
2024-04-30T00:50:19.256Z,55.81
2024-04-30T00:52:46.194Z,55.84
2024-04-30T00:55:12.754Z,55.81
2024-04-30T00:57:39.305Z,55.84
2024-04-30T01:00:07.212Z,55.87
2024-04-30T01:02:33.759Z,55.65
2024-04-30T01:05:01.397Z,55.72
2024-04-30T01:07:28.378Z,55.70
2024-04-30T01:09:55.293Z,55.89
2024-04-30T01:12:23.208Z,55.82
2024-04-30T01:14:49.736Z,55.67
2024-04-30T01:17:16.220Z,55.59
2024-04-30T01:19:42.701Z,55.09
2024-04-30T01:22:09.192Z,54.98
2024-04-30T01:24:35.785Z,54.56
2024-04-30T01:27:04.250Z,54.17
2024-04-30T01:29:30.731Z,53.52
2024-04-30T01:31:57.458Z,53.07
2024-04-30T01:34:24.091Z,52.74
2024-04-30T01:36:50.603Z,52.61
2024-04-30T01:39:17.115Z,52.34
2024-04-30T01:41:44.193Z,52.03
2024-04-30T01:44:10.926Z,52.12
2024-04-30T01:46:37.433Z,52.13
2024-04-30T01:49:04.060Z,51.99
2024-04-30T01:51:30.574Z,52.08
2024-04-30T01:53:57.066Z,52.06
2024-04-30T01:56:23.633Z,52.09
2024-04-30T01:58:51.028Z,52.13
2024-04-30T02:01:18.113Z,52.47
2024-04-30T02:03:44.856Z,52.67
2024-04-30T02:06:11.471Z,52.72
2024-04-30T02:08:37.937Z,52.80
2024-04-30T02:11:04.602Z,52.87
2024-04-30T02:13:31.102Z,52.77
2024-04-30T02:15:57.586Z,52.82
2024-04-30T02:18:24.087Z,53.01
2024-04-30T02:20:50.598Z,53.16
2024-04-30T02:23:17.153Z,53.17
2024-04-30T02:25:43.616Z,52.99
2024-04-30T02:28:10.086Z,52.98
2024-04-30T02:30:59.835Z,52.92
2024-04-30T02:33:44.760Z,52.89
2024-04-30T02:36:14.136Z,52.86
2024-04-30T02:38:40.925Z,52.69
2024-04-30T02:41:10.387Z,51.90
2024-04-30T02:43:37.155Z,52.34
2024-04-30T02:46:03.876Z,52.92
2024-04-30T02:48:30.474Z,52.88
2024-04-30T02:50:57.112Z,52.55
2024-04-30T02:53:23.581Z,51.39
2024-04-30T02:55:50.260Z,52.35
2024-04-30T02:58:16.760Z,52.63
2024-04-30T03:00:43.290Z,52.77
2024-04-30T03:03:09.826Z,52.93
2024-04-30T03:05:36.298Z,52.78
2024-04-30T03:08:02.908Z,52.33
2024-04-30T03:10:29.433Z,52.00
2024-04-30T03:12:56.251Z,51.97
2024-04-30T03:15:22.747Z,51.26
2024-04-30T03:17:49.657Z,50.91
2024-04-30T03:20:19.874Z,51.46
2024-04-30T03:22:47.611Z,51.10
2024-04-30T03:25:14.874Z,50.70
2024-04-30T03:27:41.822Z,51.20
2024-04-30T03:30:09.294Z,51.22
2024-04-30T03:32:36.135Z,51.16
2024-04-30T03:35:02.926Z,51.19
2024-04-30T03:37:29.405Z,51.37
2024-04-30T03:39:55.895Z,51.39
2024-04-30T03:42:22.540Z,51.57
2024-04-30T03:44:52.441Z,51.67
2024-04-30T03:47:19.397Z,51.77
2024-04-30T03:49:46.106Z,51.98
2024-04-30T03:52:12.628Z,52.29
2024-04-30T03:54:39.143Z,52.17
2024-04-30T03:57:06.032Z,51.98
2024-04-30T03:59:32.596Z,51.37
2024-04-30T04:01:59.179Z,50.93
2024-04-30T04:04:25.794Z,50.58
2024-04-30T04:06:52.386Z,50.72
2024-04-30T04:09:21.954Z,50.75
2024-04-30T04:12:06.960Z,51.00
2024-04-30T04:14:49.882Z,50.84
2024-04-30T04:17:17.979Z,51.05
2024-04-30T04:19:45.651Z,50.96
2024-04-30T04:22:12.314Z,51.03
2024-04-30T04:24:38.846Z,51.30
2024-04-30T04:27:06.665Z,51.43
2024-04-30T04:29:34.282Z,51.53
2024-04-30T04:32:01.480Z,51.58
2024-04-30T04:34:28.452Z,51.59
2024-04-30T04:36:55.171Z,51.86
2024-04-30T04:39:21.817Z,52.03
2024-04-30T04:41:48.290Z,52.17
2024-04-30T04:44:14.794Z,52.27
2024-04-30T04:46:41.327Z,52.30
2024-04-30T04:49:08.273Z,52.32
2024-04-30T04:51:35.014Z,52.47
2024-04-30T04:54:01.761Z,52.54
2024-04-30T04:56:28.422Z,52.68
2024-04-30T04:58:54.957Z,52.72
2024-04-30T05:01:21.614Z,52.61
2024-04-30T05:03:48.274Z,52.39
2024-04-30T05:06:14.888Z,52.13
2024-04-30T05:08:44.980Z,52.06
2024-04-30T05:11:15.876Z,51.67
2024-04-30T05:13:42.500Z,51.19
2024-04-30T05:16:09.378Z,51.08
2024-04-30T05:18:36.963Z,50.89
2024-04-30T05:21:04.229Z,50.38
2024-04-30T05:23:30.750Z,50.36
2024-04-30T05:25:57.245Z,50.28
2024-04-30T05:28:24.040Z,50.14
2024-04-30T05:30:50.561Z,49.71
2024-04-30T05:33:17.258Z,49.79
2024-04-30T05:35:43.875Z,49.28
2024-04-30T05:38:10.289Z,48.77
2024-04-30T05:40:36.850Z,47.54
2024-04-30T05:43:09.166Z,47.13
2024-04-30T05:45:35.766Z,43.84
2024-04-30T05:48:02.401Z,39.94
2024-04-30T05:50:28.989Z,38.55
2024-04-30T05:52:55.677Z,36.90
2024-04-30T05:55:22.219Z,34.47
2024-04-30T05:57:48.798Z,32.59
2024-04-30T06:00:15.414Z,31.35
2024-04-30T06:02:41.904Z,30.47
2024-04-30T06:05:08.459Z,29.79
2024-04-30T06:07:35.134Z,29.31
2024-04-30T06:10:01.716Z,28.36
2024-04-30T06:12:28.239Z,27.90
2024-04-30T06:14:54.783Z,27.11
2024-04-30T06:17:21.360Z,26.42
2024-04-30T06:19:47.917Z,25.71
2024-04-30T06:22:14.677Z,24.86
2024-04-30T06:24:41.133Z,24.16
2024-04-30T06:27:07.770Z,23.59
2024-04-30T06:29:37.952Z,22.98
2024-04-30T06:32:07.789Z,22.59
2024-04-30T06:34:34.315Z,22.01
2024-04-30T06:37:00.880Z,21.59
2024-04-30T06:39:27.390Z,21.01
2024-04-30T06:41:53.840Z,20.48
2024-04-30T06:44:21.369Z,20.97
2024-04-30T06:46:47.853Z,20.70
2024-04-30T06:49:14.425Z,21.11
2024-04-30T06:51:41.332Z,21.64
2024-04-30T06:54:08.259Z,22.55
2024-04-30T06:56:34.712Z,22.91
2024-04-30T06:59:01.314Z,23.44
2024-04-30T07:01:27.878Z,23.64
2024-04-30T07:03:54.379Z,24.37
2024-04-30T07:06:20.842Z,24.69
2024-04-30T07:08:47.351Z,25.24
2024-04-30T07:11:13.847Z,25.11
2024-04-30T07:13:40.410Z,25.56
2024-04-30T07:16:07.136Z,26.14
2024-04-30T07:18:34.006Z,26.22
2024-04-30T07:21:01.869Z,26.69
2024-04-30T07:23:28.387Z,26.82
2024-04-30T07:25:54.901Z,26.62
2024-04-30T07:28:21.492Z,26.81
2024-04-30T07:30:48.058Z,27.22
2024-04-30T07:33:14.769Z,27.16
2024-04-30T07:35:42.102Z,27.16
2024-04-30T07:38:08.585Z,26.94
2024-04-30T07:40:35.132Z,25.90
2024-04-30T07:43:01.620Z,24.41
2024-04-30T07:45:28.207Z,23.21
2024-04-30T07:47:54.905Z,22.43
2024-04-30T07:50:21.573Z,22.18
2024-04-30T07:52:48.111Z,21.24
2024-04-30T07:55:14.765Z,20.91
2024-04-30T07:57:41.341Z,20.40
2024-04-30T08:00:11.758Z,19.32
2024-04-30T08:02:38.376Z,18.80
2024-04-30T08:05:05.209Z,19.09
2024-04-30T08:07:31.791Z,18.18
2024-04-30T08:09:58.360Z,18.09
2024-04-30T08:12:24.842Z,17.86
2024-04-30T08:14:51.344Z,17.49
2024-04-30T08:17:17.862Z,16.53
2024-04-30T08:19:44.361Z,16.73
2024-04-30T08:22:10.963Z,16.70
2024-04-30T08:24:37.457Z,15.55
2024-04-30T08:27:04.285Z,15.38
2024-04-30T08:29:30.838Z,15.04
2024-04-30T08:31:57.974Z,14.73
2024-04-30T08:34:24.537Z,15.10
2024-04-30T08:36:50.986Z,14.66
2024-04-30T08:39:17.618Z,14.46
2024-04-30T08:41:48.664Z,14.14
2024-04-30T08:44:16.342Z,14.20
2024-04-30T08:46:46.244Z,13.92
2024-04-30T08:49:20.394Z,13.72
2024-04-30T08:51:57.469Z,13.82
2024-04-30T08:54:26.680Z,13.73
2024-04-30T08:56:53.460Z,13.59
2024-04-30T08:59:19.939Z,13.62
2024-04-30T09:01:52.230Z,13.20
2024-04-30T09:04:19.125Z,13.20
2024-04-30T09:06:45.864Z,12.87
2024-04-30T09:09:16.708Z,13.10
2024-04-30T09:11:44.052Z,12.88
2024-04-30T09:14:11.162Z,12.77
2024-04-30T09:16:50.196Z,12.44
2024-04-30T09:19:27.500Z,12.50
2024-04-30T09:22:04.981Z,12.01
2024-04-30T09:24:31.723Z,12.68
2024-04-30T09:26:58.301Z,12.40
2024-04-30T09:29:36.559Z,12.32
2024-04-30T09:32:04.199Z,12.53
2024-04-30T09:34:41.794Z,12.48
2024-04-30T09:37:24.186Z,12.48
2024-04-30T09:39:53.656Z,12.23
2024-04-30T09:42:21.081Z,12.41
2024-04-30T09:44:50.833Z,12.32
2024-04-30T09:47:19.042Z,12.28
2024-04-30T09:49:46.431Z,12.66
2024-04-30T09:52:15.617Z,12.78
2024-04-30T09:54:44.202Z,12.41
2024-04-30T09:57:11.509Z,13.20
2024-04-30T09:59:38.047Z,13.17
2024-04-30T10:02:12.158Z,13.61
2024-04-30T10:04:39.506Z,13.65
2024-04-30T10:07:06.392Z,13.81
2024-04-30T10:09:33.005Z,13.96
2024-04-30T10:11:59.487Z,14.03
2024-04-30T10:14:30.231Z,14.54
2024-04-30T10:17:01.689Z,14.83
2024-04-30T10:19:29.051Z,15.22
2024-04-30T10:21:55.685Z,15.38
2024-04-30T10:24:23.350Z,15.51
2024-04-30T10:26:51.590Z,15.46
2024-04-30T10:29:18.569Z,15.53
2024-04-30T10:31:49.419Z,15.66
2024-04-30T10:34:16.501Z,15.64
2024-04-30T10:36:48.166Z,15.56
2024-04-30T10:39:25.924Z,15.57
2024-04-30T10:41:52.417Z,15.53
2024-04-30T10:44:18.998Z,15.72
2024-04-30T10:46:45.541Z,16.07
2024-04-30T10:49:13.012Z,16.18
2024-04-30T10:51:39.466Z,16.17
2024-04-30T10:54:06.191Z,16.30
2024-04-30T10:56:32.742Z,16.30
2024-04-30T10:59:01.020Z,16.43
2024-04-30T11:01:31.479Z,16.46
2024-04-30T11:04:12.550Z,16.64
2024-04-30T11:06:44.846Z,17.02
2024-04-30T11:09:13.327Z,17.25
2024-04-30T11:11:50.742Z,17.38
2024-04-30T11:14:19.412Z,17.30
2024-04-30T11:16:47.627Z,17.38
2024-04-30T11:19:14.903Z,17.44
2024-04-30T11:21:41.711Z,17.11
2024-04-30T11:24:10.198Z,17.57
2024-04-30T11:26:37.083Z,17.66
2024-04-30T11:29:16.284Z,17.72
2024-04-30T11:31:50.035Z,17.80
2024-04-30T11:34:16.755Z,17.95
2024-04-30T11:36:43.317Z,17.88
2024-04-30T11:39:13.732Z,17.82
2024-04-30T11:41:43.566Z,17.89
2024-04-30T11:44:14.825Z,18.05
2024-04-30T11:46:41.304Z,17.93
2024-04-30T11:49:07.910Z,18.12
2024-04-30T11:51:34.395Z,18.08
2024-04-30T11:54:00.859Z,18.14
2024-04-30T11:56:30.445Z,18.03
2024-04-30T11:58:57.346Z,18.04
2024-04-30T12:01:23.961Z,18.11
2024-04-30T12:03:50.802Z,18.23
2024-04-30T12:06:17.428Z,18.29
2024-04-30T12:08:44.005Z,18.28
2024-04-30T12:11:10.662Z,18.11
2024-04-30T12:13:39.921Z,17.83
2024-04-30T12:16:06.771Z,17.68
2024-04-30T12:18:33.346Z,17.59
2024-04-30T12:20:59.899Z,17.76
2024-04-30T12:23:26.412Z,17.89
2024-04-30T12:25:52.943Z,17.92
2024-04-30T12:28:20.970Z,17.91
2024-04-30T12:30:47.591Z,17.92
2024-04-30T12:33:14.645Z,17.93
2024-04-30T12:35:41.319Z,18.26
2024-04-30T12:38:08.011Z,18.56
2024-04-30T12:40:34.511Z,18.75
2024-04-30T12:43:01.027Z,18.90
2024-04-30T12:45:27.526Z,18.90
2024-04-30T12:47:54.117Z,18.76
2024-04-30T12:50:20.649Z,18.91
2024-04-30T12:52:47.475Z,18.78
2024-04-30T12:55:13.996Z,18.73
2024-04-30T12:57:40.526Z,18.93
2024-04-30T13:00:07.788Z,19.13
2024-04-30T13:02:34.335Z,19.00
2024-04-30T13:05:00.938Z,19.03
2024-04-30T13:07:27.704Z,19.21
2024-04-30T13:09:54.173Z,19.24
2024-04-30T13:12:20.678Z,19.30
2024-04-30T13:14:47.127Z,19.47
2024-04-30T13:17:13.623Z,19.47
2024-04-30T13:19:40.122Z,19.61
2024-04-30T13:22:06.707Z,19.67
2024-04-30T13:24:33.283Z,19.72
2024-04-30T13:26:59.876Z,19.83
2024-04-30T13:29:26.383Z,19.92
2024-04-30T13:31:54.701Z,19.90
2024-04-30T13:34:21.183Z,19.94
2024-04-30T13:36:47.710Z,19.91
2024-04-30T13:39:16.878Z,19.86
2024-04-30T13:41:43.399Z,19.78
2024-04-30T13:44:09.915Z,19.74
2024-04-30T13:46:36.472Z,19.77
2024-04-30T13:49:02.943Z,19.78
2024-04-30T13:51:29.468Z,19.85
2024-04-30T13:53:55.892Z,19.87
2024-04-30T13:56:22.390Z,19.96
2024-04-30T13:58:48.946Z,20.06
2024-04-30T14:01:16.919Z,20.12
2024-04-30T14:03:44.311Z,20.19
2024-04-30T14:06:12.717Z,20.19
2024-04-30T14:08:39.183Z,20.18
2024-04-30T14:11:06.138Z,20.38
2024-04-30T14:13:33.981Z,20.40
2024-04-30T14:16:01.085Z,20.45
2024-04-30T14:18:27.617Z,20.40
2024-04-30T14:20:54.141Z,20.45
2024-04-30T14:23:20.699Z,20.39
2024-04-30T14:25:47.215Z,20.46
2024-04-30T14:28:13.806Z,20.43
2024-04-30T14:30:40.296Z,20.38
2024-04-30T14:33:07.008Z,20.17
2024-04-30T14:35:53.503Z,20.29
2024-04-30T14:38:19.999Z,20.02
2024-04-30T14:40:47.647Z,20.17
2024-04-30T14:43:14.259Z,20.18
2024-04-30T14:45:40.751Z,19.68
2024-04-30T14:48:07.991Z,19.52
2024-04-30T14:50:34.623Z,19.69
2024-04-30T14:53:01.234Z,19.31
2024-04-30T14:55:27.693Z,18.86
2024-04-30T14:57:54.249Z,18.99
2024-04-30T15:00:20.778Z,18.95
2024-04-30T15:02:47.275Z,18.59
2024-04-30T15:05:13.959Z,18.22
2024-04-30T15:07:40.714Z,17.99
2024-04-30T15:10:07.753Z,18.17
2024-04-30T15:12:34.232Z,18.06
2024-04-30T15:15:00.733Z,18.19
2024-04-30T15:17:27.359Z,18.29
2024-04-30T15:19:53.940Z,17.98
2024-04-30T15:22:20.460Z,18.06
2024-04-30T15:24:47.058Z,18.07
2024-04-30T15:27:14.331Z,18.06
2024-04-30T15:29:40.864Z,17.96
2024-04-30T15:32:07.340Z,17.98
2024-04-30T15:34:34.348Z,17.90
2024-04-30T15:37:00.864Z,17.98
2024-04-30T15:39:27.423Z,18.16
2024-04-30T15:41:55.129Z,18.38
2024-04-30T15:44:21.707Z,18.61
2024-04-30T15:46:48.316Z,18.78
2024-04-30T15:49:15.424Z,18.73
2024-04-30T15:51:42.455Z,18.32
2024-04-30T15:54:13.627Z,17.93
2024-04-30T15:56:46.633Z,17.87
2024-04-30T15:59:20.525Z,18.00
2024-04-30T16:01:47.121Z,18.14
2024-04-30T16:04:14.505Z,18.26
2024-04-30T16:06:42.649Z,18.20
2024-04-30T16:09:09.159Z,18.56
2024-04-30T16:11:35.762Z,18.71
2024-04-30T16:14:02.348Z,18.95
2024-04-30T16:16:28.951Z,18.95
2024-04-30T16:18:55.478Z,19.21
2024-04-30T16:21:23.519Z,19.23
2024-04-30T16:23:49.974Z,19.38
2024-04-30T16:26:16.482Z,19.56
2024-04-30T16:28:43.918Z,19.83
2024-04-30T16:31:11.418Z,19.93
2024-04-30T16:33:38.256Z,19.56
2024-04-30T16:36:05.702Z,19.56
2024-04-30T16:38:32.391Z,19.60
2024-04-30T16:40:58.861Z,19.83
2024-04-30T16:43:25.325Z,19.96
2024-04-30T16:45:51.941Z,20.11
2024-04-30T16:48:18.630Z,20.15
2024-04-30T16:50:45.283Z,20.19
2024-04-30T16:53:11.955Z,20.30
2024-04-30T16:55:38.402Z,20.44
2024-04-30T16:58:05.419Z,20.54
2024-04-30T17:00:32.117Z,20.57
2024-04-30T17:02:59.790Z,20.73
2024-04-30T17:05:27.094Z,20.89
2024-04-30T17:07:53.705Z,20.98
2024-04-30T17:10:20.374Z,21.09
2024-04-30T17:12:48.951Z,21.08
2024-04-30T17:15:15.562Z,21.13
2024-04-30T17:17:42.148Z,21.12
2024-04-30T17:20:08.857Z,21.21
2024-04-30T17:22:37.288Z,21.43
2024-04-30T17:25:04.298Z,21.46
2024-04-30T17:27:30.979Z,21.56
2024-04-30T17:29:57.563Z,21.63
2024-04-30T17:32:24.252Z,21.73
2024-04-30T17:34:51.027Z,21.89
2024-04-30T17:37:17.969Z,22.02
2024-04-30T17:39:44.525Z,22.14
2024-04-30T17:42:11.161Z,22.30
2024-04-30T17:44:38.317Z,22.40
2024-04-30T17:47:06.359Z,22.52
2024-04-30T17:49:33.023Z,22.68
2024-04-30T17:51:59.516Z,22.73
2024-04-30T17:54:26.107Z,22.98
2024-04-30T17:56:52.839Z,22.81
2024-04-30T17:59:20.541Z,23.02
2024-04-30T18:01:48.594Z,23.35
2024-04-30T18:04:15.320Z,23.72
2024-04-30T18:06:41.967Z,24.02
2024-04-30T18:09:08.583Z,24.06
2024-04-30T18:11:35.126Z,24.02
2024-04-30T18:14:02.921Z,24.20
2024-04-30T18:16:29.514Z,24.37
2024-04-30T18:19:49.051Z,24.76
2024-04-30T18:22:30.837Z,24.96
2024-04-30T18:24:57.314Z,25.34
2024-04-30T18:27:23.926Z,25.54
2024-04-30T18:29:50.524Z,25.64
2024-04-30T18:32:17.050Z,25.85
2024-04-30T18:34:44.279Z,25.99
2024-04-30T18:37:11.296Z,26.10
2024-04-30T18:39:41.081Z,26.30
2024-04-30T18:42:07.628Z,26.29
2024-04-30T18:44:35.281Z,26.57
2024-04-30T18:47:01.846Z,26.55
2024-04-30T18:49:28.495Z,26.69
2024-04-30T18:51:55.503Z,27.12
2024-04-30T18:54:21.939Z,27.14
2024-04-30T18:56:51.020Z,27.36
2024-04-30T18:59:19.255Z,27.35
2024-04-30T19:01:48.810Z,27.42
2024-04-30T19:04:15.443Z,27.56
2024-04-30T19:06:42.417Z,27.80
2024-04-30T19:09:09.057Z,27.91
2024-04-30T19:11:35.583Z,28.08
2024-04-30T19:14:02.166Z,28.17
2024-04-30T19:16:28.640Z,28.19
2024-04-30T19:18:55.208Z,28.32
2024-04-30T19:21:21.753Z,28.39
2024-04-30T19:23:48.265Z,28.62
2024-04-30T19:26:14.978Z,28.62
2024-04-30T19:28:41.385Z,28.66
2024-04-30T19:31:19.655Z,28.90
2024-04-30T19:33:47.291Z,29.18
2024-04-30T19:36:19.591Z,29.38
2024-04-30T19:38:47.019Z,29.43
2024-04-30T19:41:14.671Z,29.61
2024-04-30T19:43:41.269Z,29.72
2024-04-30T19:46:21.043Z,29.69
2024-04-30T19:48:51.348Z,30.03
2024-04-30T19:51:21.871Z,30.32
2024-04-30T19:53:49.610Z,30.24
2024-04-30T19:56:23.084Z,30.38
2024-04-30T19:58:55.640Z,30.69
2024-04-30T20:01:25.922Z,30.82
2024-04-30T20:03:52.572Z,31.03
2024-04-30T20:06:19.819Z,31.15
2024-04-30T20:08:46.468Z,31.09
2024-04-30T20:11:20.624Z,31.21
2024-04-30T20:13:47.971Z,31.41
2024-04-30T20:16:16.007Z,31.54
2024-04-30T20:18:44.342Z,31.79
2024-04-30T20:21:14.815Z,32.19
2024-04-30T20:23:42.372Z,32.54
2024-04-30T20:26:11.246Z,32.61
2024-04-30T20:28:38.051Z,32.67
2024-04-30T20:31:05.656Z,32.92
2024-04-30T20:33:35.791Z,33.11
2024-04-30T20:36:02.320Z,33.32
2024-04-30T20:38:30.023Z,33.41
2024-04-30T20:40:56.491Z,33.56
2024-04-30T20:43:22.978Z,33.74
2024-04-30T20:45:49.922Z,33.80
2024-04-30T20:48:17.437Z,33.94
2024-04-30T20:50:44.302Z,34.13
2024-04-30T20:53:10.753Z,34.05
2024-04-30T20:55:37.191Z,34.17
2024-04-30T20:58:03.915Z,34.20
2024-04-30T21:00:30.402Z,34.13
2024-04-30T21:02:56.969Z,34.17
2024-04-30T21:05:23.472Z,34.36
2024-04-30T21:07:49.925Z,34.27
2024-04-30T21:10:16.403Z,34.28
2024-04-30T21:12:42.916Z,34.36
2024-04-30T21:15:09.386Z,34.33
2024-04-30T21:17:36.336Z,34.37
2024-04-30T21:20:03.935Z,34.16
2024-04-30T21:22:32.359Z,34.24
2024-04-30T21:24:59.735Z,34.33
2024-04-30T21:27:26.866Z,34.52
2024-04-30T21:29:53.583Z,34.67
2024-04-30T21:32:20.091Z,34.82
2024-04-30T21:34:48.795Z,35.01
2024-04-30T21:37:15.622Z,35.06
2024-04-30T21:39:44.215Z,35.29
2024-04-30T21:42:10.814Z,35.35
2024-04-30T21:44:37.282Z,35.40
2024-04-30T21:47:04.143Z,35.51
2024-04-30T21:49:30.762Z,35.62
2024-04-30T21:51:57.334Z,35.70
2024-04-30T21:54:23.857Z,35.79
2024-04-30T21:56:50.281Z,35.85
2024-04-30T21:59:16.766Z,35.91
2024-04-30T22:01:49.310Z,35.90
2024-04-30T22:04:15.994Z,35.94
2024-04-30T22:06:42.708Z,36.15
2024-04-30T22:09:09.259Z,36.25
2024-04-30T22:11:35.756Z,36.32
2024-04-30T22:14:02.231Z,36.30
2024-04-30T22:16:28.778Z,36.41
2024-04-30T22:18:55.487Z,36.59
2024-04-30T22:21:24.478Z,36.74
2024-04-30T22:23:51.958Z,36.87
2024-04-30T22:26:18.424Z,37.00
2024-04-30T22:28:44.964Z,37.10
2024-04-30T22:31:11.467Z,37.20
2024-04-30T22:33:38.173Z,37.31
2024-04-30T22:36:05.675Z,37.43
2024-04-30T22:38:32.424Z,37.46
2024-04-30T22:40:58.865Z,37.57
2024-04-30T22:43:25.482Z,37.62
2024-04-30T22:45:52.624Z,37.70
2024-04-30T22:48:19.396Z,37.78
2024-04-30T22:50:45.972Z,37.86
2024-04-30T22:53:12.515Z,37.94
2024-04-30T22:55:39.007Z,38.01
2024-04-30T22:58:05.543Z,38.08
2024-04-30T23:00:32.163Z,38.18
2024-04-30T23:02:58.731Z,38.28
2024-04-30T23:05:25.275Z,38.28
2024-04-30T23:07:51.744Z,38.29
2024-04-30T23:10:18.354Z,38.31
2024-04-30T23:12:44.846Z,38.40
2024-04-30T23:15:11.321Z,38.42
2024-04-30T23:17:38.034Z,38.51
2024-04-30T23:20:05.177Z,38.59
2024-04-30T23:22:31.638Z,38.72
2024-04-30T23:24:58.116Z,38.94
2024-04-30T23:27:24.715Z,39.10
2024-04-30T23:29:51.226Z,39.19
2024-04-30T23:32:17.845Z,39.22
2024-04-30T23:34:44.578Z,39.30
2024-04-30T23:37:11.142Z,39.40
2024-04-30T23:39:37.712Z,39.52
2024-04-30T23:42:06.359Z,39.62
2024-04-30T23:44:34.969Z,39.76
2024-04-30T23:47:01.542Z,39.91
2024-04-30T23:49:28.027Z,40.09
2024-04-30T23:51:54.579Z,40.20
2024-04-30T23:54:21.092Z,40.27
2024-04-30T23:56:47.513Z,40.32
2024-04-30T23:59:13.940Z,40.48
